Time,TemperatureF,DewpointF,PressureIn,WindDirection,WindDirectionDegrees,WindSpeedMPH,WindSpeedGustMPH,Humidity,HourlyPrecipIn,Conditions,Clouds,dailyrainin,SolarRadiationWatts/m^2,SoftwareType,DateUTC
2013-02-20 00:11:00,29.0,24.0,-100.00,NNW,347,9.0,18.0,80,0.00,,,0.00,0.000000,,2013-02-20 09:11:00,
2013-02-20 00:21:00,29.0,24.0,-100.00,NNW,347,9.0,18.0,80,0.00,,,0.00,0.000000,,2013-02-20 09:21:00,
2013-02-20 00:31:00,29.0,24.0,-100.00,NNW,347,9.0,18.0,80,0.00,,,0.00,0.000000,,2013-02-20 09:31:00,
2013-02-20 00:41:00,29.0,24.0,-100.00,NNW,347,9.0,18.0,80,0.00,,,0.00,0.000000,,2013-02-20 09:41:00,
2013-02-20 00:51:00,29.0,24.0,-100.00,NNW,347,9.0,18.0,80,0.00,,,0.00,0.000000,,2013-02-20 09:51:00,
2013-02-20 01:12:00,31.0,24.0,-100.00,North,350,8.0,16.0,75,0.00,,,0.00,0.000000,,2013-02-20 10:12:00,
2013-02-20 01:21:00,31.0,24.0,-100.00,North,350,8.0,16.0,75,0.00,,,0.00,0.000000,,2013-02-20 10:21:00,
2013-02-20 01:31:00,31.0,24.0,-100.00,North,350,8.0,16.0,75,0.00,,,0.00,0.000000,,2013-02-20 10:31:00,
2013-02-20 01:41:00,31.0,24.0,-100.00,North,350,8.0,16.0,75,0.00,,,0.00,0.000000,,2013-02-20 10:41:00,
2013-02-20 01:51:00,31.0,24.0,-100.00,North,350,8.0,16.0,75,0.00,,,0.00,0.000000,,2013-02-20 10:51:00,
2013-02-20 02:21:00,30.0,23.0,-100.00,North,354,7.0,15.0,76,0.00,,,0.00,0.000000,,2013-02-20 11:21:00,
2013-02-20 02:32:00,30.0,23.0,-100.00,North,354,7.0,15.0,76,0.00,,,0.00,0.000000,,2013-02-20 11:32:00,
2013-02-20 02:41:00,30.0,23.0,-100.00,North,354,7.0,15.0,76,0.00,,,0.00,0.000000,,2013-02-20 11:41:00,
2013-02-20 02:52:00,30.0,23.0,-100.00,North,354,7.0,15.0,76,0.00,,,0.00,0.000000,,2013-02-20 11:52:00,
2013-02-20 03:12:00,30.0,24.0,-100.00,North,350,10.0,16.0,78,0.00,,,0.00,0.000000,,2013-02-20 12:12:00,
2013-02-20 03:21:00,30.0,24.0,-100.00,North,350,10.0,16.0,78,0.00,,,0.00,0.000000,,2013-02-20 12:21:00,
2013-02-20 03:31:00,30.0,24.0,-100.00,North,350,10.0,16.0,78,0.00,,,0.00,0.000000,,2013-02-20 12:31:00,
2013-02-20 03:42:00,30.0,24.0,-100.00,North,350,10.0,16.0,78,0.00,,,0.00,0.000000,,2013-02-20 12:42:00,
2013-02-20 03:52:00,30.0,24.0,-100.00,North,350,10.0,16.0,78,0.00,,,0.00,0.000000,,2013-02-20 12:52:00,
2013-02-20 04:11:00,30.0,24.0,-100.00,North,352,7.0,16.0,78,0.00,,,0.00,0.000000,,2013-02-20 13:11:00,
2013-02-20 04:22:00,30.0,24.0,-100.00,North,352,7.0,16.0,78,0.00,,,0.00,0.000000,,2013-02-20 13:22:00,
2013-02-20 04:31:00,30.0,24.0,-100.00,North,352,7.0,16.0,78,0.00,,,0.00,0.000000,,2013-02-20 13:31:00,
2013-02-20 04:42:00,30.0,24.0,-100.00,North,352,7.0,16.0,78,0.00,,,0.00,0.000000,,2013-02-20 13:42:00,
2013-02-20 04:51:00,30.0,24.0,-100.00,North,352,7.0,16.0,78,0.00,,,0.00,0.000000,,2013-02-20 13:51:00,
2013-02-20 05:21:00,22.0,19.0,-100.00,NNE,19,6.0,16.0,89,0.00,,,0.00,0.000000,,2013-02-20 14:21:00,
2013-02-20 05:32:00,22.0,19.0,-100.00,NNE,19,6.0,16.0,89,0.00,,,0.00,0.000000,,2013-02-20 14:32:00,
2013-02-20 05:42:00,22.0,19.0,-100.00,NNE,19,6.0,16.0,89,0.00,,,0.00,0.000000,,2013-02-20 14:42:00,
2013-02-20 05:52:00,22.0,19.0,-100.00,NNE,19,6.0,16.0,89,0.00,,,0.00,0.000000,,2013-02-20 14:52:00,
2013-02-20 06:11:00,22.0,20.0,-100.00,NE,44,2.0,6.0,91,0.00,,,0.00,0.000000,,2013-02-20 15:11:00,
2013-02-20 06:22:00,22.0,20.0,-100.00,NE,44,2.0,6.0,91,0.00,,,0.00,0.000000,,2013-02-20 15:22:00,
2013-02-20 06:32:00,22.0,20.0,-100.00,NE,44,2.0,6.0,91,0.00,,,0.00,0.000000,,2013-02-20 15:32:00,
2013-02-20 06:41:00,22.0,20.0,-100.00,NE,44,2.0,6.0,91,0.00,,,0.00,0.000000,,2013-02-20 15:41:00,
2013-02-20 06:51:00,22.0,20.0,-100.00,NE,44,2.0,6.0,91,0.00,,,0.00,0.000000,,2013-02-20 15:51:00,
2013-02-20 07:21:00,21.0,19.0,-100.00,NNE,24,2.0,4.0,92,0.00,,,0.00,0.000000,,2013-02-20 16:21:00,
2013-02-20 07:32:00,21.0,19.0,-100.00,NNE,24,2.0,4.0,92,0.00,,,0.00,0.000000,,2013-02-20 16:32:00,
2013-02-20 07:41:00,21.0,19.0,-100.00,NNE,24,2.0,4.0,92,0.00,,,0.00,0.000000,,2013-02-20 16:41:00,
2013-02-20 07:51:00,21.0,19.0,-100.00,NNE,24,2.0,4.0,92,0.00,,,0.00,0.000000,,2013-02-20 16:51:00,
2013-02-20 08:21:00,20.0,19.0,-100.00,North,9,3.0,6.0,97,0.00,,,0.00,0.000000,,2013-02-20 17:21:00,
2013-02-20 08:32:00,20.0,19.0,-100.00,North,9,3.0,6.0,97,0.00,,,0.00,0.000000,,2013-02-20 17:32:00,
2013-02-20 08:41:00,20.0,19.0,-100.00,North,9,3.0,6.0,97,0.00,,,0.00,0.000000,,2013-02-20 17:41:00,
2013-02-20 08:52:00,20.0,19.0,-100.00,North,9,3.0,6.0,97,0.00,,,0.00,0.000000,,2013-02-20 17:52:00,
2013-02-20 09:21:00,22.0,20.0,-100.00,NE,36,4.0,6.0,92,0.00,,,0.00,4.000000,,2013-02-20 18:21:00,
2013-02-20 09:31:00,22.0,20.0,-100.00,NE,36,4.0,6.0,92,0.00,,,0.00,4.000000,,2013-02-20 18:31:00,
2013-02-20 09:41:00,22.0,20.0,-100.00,NE,36,4.0,6.0,92,0.00,,,0.00,4.000000,,2013-02-20 18:41:00,
2013-02-20 09:51:00,22.0,20.0,-100.00,NE,36,4.0,6.0,92,0.00,,,0.00,4.000000,,2013-02-20 18:51:00,
2013-02-20 10:21:00,24.0,21.0,-100.00,SW,236,1.0,6.0,87,0.00,,,0.00,20.000000,,2013-02-20 19:21:00,
2013-02-20 10:31:00,24.0,21.0,-100.00,SW,236,1.0,6.0,87,0.00,,,0.00,20.000000,,2013-02-20 19:31:00,
2013-02-20 10:41:00,24.0,21.0,-100.00,SW,236,1.0,6.0,87,0.00,,,0.00,20.000000,,2013-02-20 19:41:00,
2013-02-20 10:51:00,24.0,21.0,-100.00,SW,236,1.0,6.0,87,0.00,,,0.00,20.000000,,2013-02-20 19:51:00,
2013-02-20 11:21:00,27.0,24.0,-100.00,NNE,16,2.0,4.0,90,0.00,,,0.00,51.000000,,2013-02-20 20:21:00,
2013-02-20 11:31:00,27.0,24.0,-100.00,NNE,16,2.0,4.0,90,0.00,,,0.00,51.000000,,2013-02-20 20:31:00,
2013-02-20 11:41:00,27.0,24.0,-100.00,NNE,16,2.0,4.0,90,0.00,,,0.00,51.000000,,2013-02-20 20:41:00,
2013-02-20 11:51:00,27.0,24.0,-100.00,NNE,16,2.0,4.0,90,0.00,,,0.00,51.000000,,2013-02-20 20:51:00,
2013-02-20 12:11:00,36.0,27.0,-100.00,North,11,2.0,6.0,69,0.00,,,0.00,379.000000,,2013-02-20 21:11:00,
2013-02-20 13:11:00,33.0,23.0,-100.00,SE,125,0.0,5.0,66,-99.99,,,0.00,401.000000,,2013-02-20 22:11:00,
2013-02-20 13:21:00,33.0,23.0,-100.00,SE,125,0.0,5.0,66,-99.99,,,0.00,401.000000,,2013-02-20 22:21:00,
2013-02-20 13:31:00,33.0,23.0,-100.00,SE,125,0.0,5.0,66,-99.99,,,0.00,401.000000,,2013-02-20 22:31:00,
2013-02-20 13:41:00,33.0,23.0,-100.00,SE,125,0.0,5.0,66,-99.99,,,0.00,401.000000,,2013-02-20 22:41:00,
2013-02-20 13:51:00,33.0,23.0,-100.00,SE,125,0.0,5.0,66,-99.99,,,0.00,401.000000,,2013-02-20 22:51:00,
2013-02-20 14:12:00,34.0,25.0,-100.00,East,98,2.0,6.0,68,0.00,,,0.00,373.000000,,2013-02-20 23:12:00,
2013-02-20 14:22:00,34.0,25.0,-100.00,East,98,2.0,6.0,68,0.00,,,0.00,373.000000,,2013-02-20 23:22:00,
2013-02-20 14:31:00,34.0,25.0,-100.00,East,98,2.0,6.0,68,0.00,,,0.00,373.000000,,2013-02-20 23:31:00,
2013-02-20 14:42:00,34.0,25.0,-100.00,East,98,2.0,6.0,68,0.00,,,0.00,373.000000,,2013-02-20 23:42:00,
2013-02-20 14:52:00,34.0,25.0,-100.00,East,98,2.0,6.0,68,0.00,,,0.00,373.000000,,2013-02-20 23:52:00,
2013-02-20 15:21:00,33.0,22.0,-100.00,SE,145,3.0,5.0,63,0.00,,,0.00,381.000000,,2013-02-21 00:21:00,
2013-02-20 15:32:00,33.0,22.0,-100.00,SE,145,3.0,5.0,63,0.00,,,0.00,381.000000,,2013-02-21 00:32:00,
2013-02-20 15:42:00,33.0,22.0,-100.00,SE,145,3.0,5.0,63,0.00,,,0.00,381.000000,,2013-02-21 00:42:00,
2013-02-20 15:52:00,33.0,22.0,-100.00,SE,145,3.0,5.0,63,0.00,,,0.00,381.000000,,2013-02-21 00:52:00,
2013-02-20 16:21:00,30.0,22.0,-100.00,SSE,153,3.0,6.0,72,0.00,,,0.00,156.000000,,2013-02-21 01:21:00,
2013-02-20 16:32:00,30.0,22.0,-100.00,SSE,153,3.0,6.0,72,0.00,,,0.00,156.000000,,2013-02-21 01:32:00,
2013-02-20 16:41:00,30.0,22.0,-100.00,SSE,153,3.0,6.0,72,0.00,,,0.00,156.000000,,2013-02-21 01:41:00,
2013-02-20 16:51:00,30.0,22.0,-100.00,SSE,153,3.0,6.0,72,0.00,,,0.00,156.000000,,2013-02-21 01:51:00,
2013-02-20 17:11:00,28.0,26.0,-100.00,SSE,153,3.0,5.0,91,0.01,,,0.01,77.000000,,2013-02-21 02:11:00,
2013-02-20 17:21:00,28.0,26.0,-100.00,SSE,153,3.0,5.0,91,0.01,,,0.01,77.000000,,2013-02-21 02:21:00,
2013-02-20 17:32:00,28.0,26.0,-100.00,SSE,153,3.0,5.0,91,0.01,,,0.01,77.000000,,2013-02-21 02:32:00,
2013-02-20 17:42:00,28.0,26.0,-100.00,SSE,153,3.0,5.0,91,0.01,,,0.01,77.000000,,2013-02-21 02:42:00,
2013-02-20 17:51:00,28.0,26.0,-100.00,SSE,153,3.0,5.0,91,0.01,,,0.01,77.000000,,2013-02-21 02:51:00,
2013-02-20 18:12:00,25.0,23.0,-100.00,East,87,0.0,5.0,93,0.00,,,0.01,17.000000,,2013-02-21 03:12:00,
2013-02-20 18:21:00,25.0,23.0,-100.00,East,87,0.0,5.0,93,0.00,,,0.01,17.000000,,2013-02-21 03:21:00,
2013-02-20 18:31:00,25.0,23.0,-100.00,East,87,0.0,5.0,93,0.00,,,0.01,17.000000,,2013-02-21 03:31:00,
2013-02-20 18:41:00,25.0,23.0,-100.00,East,87,0.0,5.0,93,0.00,,,0.01,17.000000,,2013-02-21 03:41:00,
2013-02-20 18:51:00,25.0,23.0,-100.00,East,87,0.0,5.0,93,0.00,,,0.01,17.000000,,2013-02-21 03:51:00,
2013-02-20 19:21:00,24.0,24.0,-100.00,ENE,65,0.0,3.0,100,0.00,,,0.01,1.000000,,2013-02-21 04:21:00,
2013-02-20 19:31:00,24.0,24.0,-100.00,ENE,65,0.0,3.0,100,0.00,,,0.01,1.000000,,2013-02-21 04:31:00,
2013-02-20 19:41:00,24.0,24.0,-100.00,ENE,65,0.0,3.0,100,0.00,,,0.01,1.000000,,2013-02-21 04:41:00,
2013-02-20 19:51:00,24.0,24.0,-100.00,ENE,65,0.0,3.0,100,0.00,,,0.01,1.000000,,2013-02-21 04:51:00,
2013-02-20 20:22:00,25.0,25.0,-100.00,NW,326,1.0,3.0,100,0.00,,,0.01,0.000000,,2013-02-21 05:22:00,
2013-02-20 20:33:00,25.0,25.0,-100.00,NW,326,1.0,3.0,100,0.00,,,0.01,0.000000,,2013-02-21 05:33:00,
2013-02-20 20:43:00,25.0,25.0,-100.00,NW,326,1.0,3.0,100,0.00,,,0.01,0.000000,,2013-02-21 05:43:00,
2013-02-20 20:52:00,25.0,25.0,-100.00,NW,326,1.0,3.0,100,0.00,,,0.01,0.000000,,2013-02-21 05:52:00,
2013-02-20 21:11:00,25.0,25.0,-100.00,ENE,75,0.0,0.0,100,0.00,,,0.01,0.000000,,2013-02-21 06:11:00,
2013-02-20 21:21:00,25.0,25.0,-100.00,ENE,75,0.0,0.0,100,0.00,,,0.01,0.000000,,2013-02-21 06:21:00,
2013-02-20 21:31:00,25.0,25.0,-100.00,ENE,75,0.0,0.0,100,0.00,,,0.01,0.000000,,2013-02-21 06:31:00,
2013-02-20 21:41:00,25.0,25.0,-100.00,ENE,75,0.0,0.0,100,0.00,,,0.01,0.000000,,2013-02-21 06:41:00,
2013-02-20 21:51:00,25.0,25.0,-100.00,ENE,75,0.0,0.0,100,0.00,,,0.01,0.000000,,2013-02-21 06:51:00,
2013-02-20 22:11:00,25.0,25.0,-100.00,NW,319,0.0,0.0,100,0.00,,,0.01,0.000000,,2013-02-21 07:11:00,
2013-02-20 22:21:00,25.0,25.0,-100.00,NW,319,0.0,0.0,100,0.00,,,0.01,0.000000,,2013-02-21 07:21:00,
2013-02-20 22:31:00,25.0,25.0,-100.00,NW,319,0.0,0.0,100,0.00,,,0.01,0.000000,,2013-02-21 07:31:00,
2013-02-20 22:41:00,25.0,25.0,-100.00,NW,319,0.0,0.0,100,0.00,,,0.01,0.000000,,2013-02-21 07:41:00,
2013-02-20 22:52:00,25.0,25.0,-100.00,NW,319,0.0,0.0,100,0.00,,,0.01,0.000000,,2013-02-21 07:52:00,
2013-02-20 23:11:00,25.0,25.0,-100.00,South,171,0.0,0.0,100,0.00,,,0.01,0.000000,,2013-02-21 08:11:00,
2013-02-20 23:21:00,25.0,25.0,-100.00,South,171,0.0,0.0,100,0.00,,,0.01,0.000000,,2013-02-21 08:21:00,
2013-02-20 23:31:00,25.0,25.0,-100.00,South,171,0.0,0.0,100,0.00,,,0.01,0.000000,,2013-02-21 08:31:00,
2013-02-20 23:41:00,25.0,25.0,-100.00,South,171,0.0,0.0,100,0.00,,,0.01,0.000000,,2013-02-21 08:41:00,
2013-02-20 23:51:00,25.0,25.0,-100.00,South,171,0.0,0.0,100,0.00,,,0.01,0.000000,,2013-02-21 08:51:00,